• Join FlightAware (Why Join?)
  • Login
  • US Flag 
08:16PM EST


 

Airport Tracker/Info


-or-


 

Live Flight TrackerFlight Track Log ✈ PDT4226 ✈ 18-Oct-2013 ✈ KBGM - KPHL

Flight Track Log - Related Links

Times and Time Zones

All times are in EDT time to prevent confusion due to time zone crossing. See the PDT4226 flight status page for this flight to view local times or setup timezone preferences in your user account.

Time Position Orientation Groundspeed Altitude Reporting Facility
EDT Latitude Longitude Course Direction KTS MPH feet Rate Location/Type
01:52PM 42.0306 -75.9214 180° South  Level Estimated
01:53PM 41.9696 -75.9240 182° South  Level FlightAware Approximate
01:54PM 41.9086 -75.9266 182° South  Level FlightAware Approximate
01:55PM 41.8496 -75.9061 154° Southeast  Level Estimated
01:56PM 41.7905 -75.8856 160° South  Level Estimated
01:57PM 41.7315 -75.8652 159° South  Level Estimated
01:58PM 41.6718 -75.8483 168° South  Level FlightAware Approximate
01:59PM 41.6127 -75.8278 153° Southeast  Level Estimated
02:00PM 41.5537 -75.8074 161° South  Level Estimated
02:01PM 41.4956 -75.7822 162° South  Level FlightAware Approximate
02:02PM 41.4376 -75.7571 162° South  Level FlightAware Approximate
02:03PM 41.3796 -75.7320 162° South  Level FlightAware Approximate
02:04PM 41.3204 -75.7123 162° South  Level Estimated
02:05PM 41.2627 -75.6860 161° South  Level FlightAware Approximate
02:06PM 41.2050 -75.6597 161° South  Level FlightAware Approximate
02:07PM 41.1473 -75.6334 161° South  Level FlightAware Approximate
02:08PM 41.0879 -75.6148 159° South  Level Estimated
02:09PM 41.0285 -75.5962 163° South  Level Estimated
02:10PM 40.9710 -75.5691 160° South  Level FlightAware Approximate
02:11PM 40.9136 -75.5421 160° South  Level FlightAware Approximate
02:12PM 40.8560 -75.5152 160° South  Level FlightAware Approximate
02:13PM 40.7964 -75.4983 190° South  Level Estimated
02:14PM 40.7354 -75.4986 180° South  Level FlightAware Approximate
02:15PM 40.6744 -75.4990 180° South  Level FlightAware Approximate
02:16PM 40.6134 -75.4993 180° South  Level FlightAware Approximate
02:17PM 40.5545 -75.4786 187° South  Level Estimated
02:18PM 40.4955 -75.4578 190° South  Level Estimated
02:18PM 40.5000 -75.5500 182° South 240 276 6,000  Level Philadelphia TRACON
02:19PM 40.4369 -75.4799 196° South  Level FlightAware Approximate
02:19PM 40.4333 -75.5500 180° South 245 282 5,500  Level Philadelphia TRACON
02:20PM 40.3782 -75.5020 196° South  Level FlightAware Approximate
02:20PM 40.3667 -75.5500 180° South 258 297 5,000  Level Philadelphia TRACON
02:21PM 40.3215 -75.4725 180° South  Level Estimated
02:21PM 40.3167 -75.5000 143° Southeast 231 266 5,000  Level Philadelphia TRACON
02:22PM 40.2634 -75.4423 143° Southeast  Level Estimated
02:22PM 40.2667 -75.4500 143° Southeast 236 272 5,000  Level Philadelphia TRACON
02:23PM 40.2009 -75.4453 182° South  Level FlightAware Approximate
02:23PM 40.2167 -75.4000 143° Southeast 230 265 4,800  Level Philadelphia TRACON
02:24PM 40.1667 -75.3500 143° Southeast 211 243 4,200 -480 Descending Philadelphia TRACON
02:25PM 40.1333 -75.3000 131° Southeast 216 249 4,000 -120 Descending Philadelphia TRACON
02:26PM 40.0667 -75.2667 159° South 212 244 4,000  Level Philadelphia TRACON
02:27PM 40.0167 -75.2167 143° Southeast 204 235 4,000  Level Philadelphia TRACON
02:28PM 39.9667 -75.2000 166° South 201 231 4,000  Level Philadelphia TRACON
02:29PM 39.9333 -75.1667 143° Southeast 203 234 4,000  Level Philadelphia TRACON
02:30PM 39.8667 -75.1333 159° South 205 236 4,000 -480 Level Philadelphia TRACON
02:31PM 39.8167 -75.1000 153° Southeast 189 217 3,000 -600 Descending Philadelphia TRACON
02:32PM 39.7833 -75.1167 201° Southwest 170 196 2,900 -540 Descending Philadelphia TRACON
02:33PM 39.7667 -75.1667 247° West 159 183 2,000 -840 Descending Philadelphia TRACON
02:34PM 39.8167 -75.2000 333° Northwest 154 177 1,300 -660 Descending Philadelphia TRACON
02:35PM 39.8333 -75.2167 322° Northwest 111 128 700 -600 Descending Philadelphia TRACON